Callaway, Kentucky
Current Conditions -  °F | °C
As of 1:55 PM on Monday 20 Oct 2014 (Local Time) from K1A6 Reporting Station
Broken Clouds Broken Clouds  
Wind Chill: 63°   Ceiling: 11000
Heat Index: 63°   Visibility: 10mi
Dew Point: 48°   Wind: 8mph
Humidity: 58%   Direction: 160°SSE
Pressure: 30.02"   Gusts: NA
Location:  36.7417°N, 83.6911°W
Report Text: K1A6 201755Z AUTO 16007KT 10SM BKN110 17/09 A3002 RMK AO2 T01720088 10179 20037
Loading
Personal Weather Stations






























Interactive Weather Map
Tropical Storm Tracking
New forecast layout! Learn more

10-Day Weather Forecast

Advertisements
Track Severe Weather on mobile